Time;durP1;ratioP1;P1;durP2;ratioP2;P2;SDS_P1;SDS_P2;PMS_P1;PMS_P2;Temp;Humidity;BMP_temperature;BMP_pressure;BME280_temperature;BME280_humidity;BME280_pressure;Samples;Min_cycle;Max_cycle;Signal;HPM_P1;HPM_P2
2020/12/04 00:00:22;;;;;;;0.97;0.97;;;16.90;57.30;;;;;;5057043;27;20443;-92
2020/12/04 00:02:48;;;;;;;1.27;1.10;;;16.80;57.20;;;;;;5029051;28;20534;-93
2020/12/04 00:05:13;;;;;;;1.43;1.33;;;16.80;57.20;;;;;;5029222;28;20253;-92
2020/12/04 00:07:39;;;;;;;1.30;1.20;;;16.80;57.10;;;;;;5030029;28;20193;-92
2020/12/04 00:10:04;;;;;;;1.27;1.17;;;16.80;57.20;;;;;;5029502;28;20231;-92
2020/12/04 00:12:30;;;;;;;1.40;1.30;;;16.80;57.20;;;;;;5039158;28;20264;-92
2020/12/04 00:14:56;;;;;;;1.20;1.10;;;16.80;57.20;;;;;;5048694;27;20203;-92
2020/12/04 00:17:21;;;;;;;1.40;1.30;;;16.80;57.20;;;;;;5049956;27;20175;-92
2020/12/04 00:19:47;;;;;;;1.20;1.10;;;16.80;57.20;;;;;;5048021;28;20190;-92
2020/12/04 00:22:12;;;;;;;1.33;1.23;;;16.80;57.20;;;;;;5048516;27;20177;-92
2020/12/04 00:24:38;;;;;;;1.20;1.10;;;16.80;57.10;;;;;;5048837;27;20184;-92
2020/12/04 00:27:03;;;;;;;1.10;1.10;;;16.80;57.10;;;;;;5039654;27;20205;-92
2020/12/04 00:29:29;;;;;;;1.50;1.40;;;16.90;57.10;;;;;;5029388;28;20691;-92
2020/12/04 00:31:58;;;;;;;1.20;1.10;;;16.90;57.10;;;;;;5029712;28;20183;-92
2020/12/04 00:34:24;;;;;;;1.20;1.10;;;16.90;57.10;;;;;;5028114;28;20197;-92
2020/12/04 00:36:50;;;;;;;1.20;1.10;;;16.90;57.10;;;;;;5028182;28;20932;-92
2020/12/04 00:39:16;;;;;;;1.10;1.00;;;16.90;57.00;;;;;;5027688;28;20521;-92
2020/12/04 00:41:42;;;;;;;1.20;1.10;;;16.90;57.00;;;;;;5030830;28;20179;-92
2020/12/04 00:44:08;;;;;;;1.20;1.10;;;16.90;57.00;;;;;;5048194;28;20445;-92
2020/12/04 00:46:34;;;;;;;1.30;1.20;;;16.90;57.00;;;;;;5049436;27;20412;-92
2020/12/04 00:48:59;;;;;;;1.13;1.03;;;16.90;57.10;;;;;;5047947;28;20570;-92
2020/12/04 00:51:25;;;;;;;1.40;1.30;;;16.80;57.00;;;;;;5047666;27;20175;-92
2020/12/04 00:53:51;;;;;;;1.33;1.23;;;16.80;57.00;;;;;;5048252;28;20218;-92
2020/12/04 00:56:17;;;;;;;1.30;1.20;;;16.80;57.10;;;;;;5049587;28;21172;-92
2020/12/04 00:58:45;;;;;;;1.17;1.10;;;16.90;57.20;;;;;;5047833;28;20178;-92
2020/12/04 01:01:10;;;;;;;1.50;1.40;;;16.80;57.10;;;;;;5049044;28;20413;-92
2020/12/04 01:03:36;;;;;;;1.23;1.13;;;16.90;57.20;;;;;;5047909;28;20420;-92
2020/12/04 01:06:01;;;;;;;1.27;1.10;;;16.80;57.10;;;;;;5044961;28;20192;-92
2020/12/04 01:08:27;;;;;;;1.53;1.43;;;16.80;57.10;;;;;;5039692;28;20183;-92
2020/12/04 01:10:52;;;;;;;1.30;1.20;;;16.80;57.20;;;;;;5048630;28;20170;-92
2020/12/04 01:13:18;;;;;;;1.13;1.03;;;16.80;57.10;;;;;;5047605;28;20250;-92
2020/12/04 01:15:43;;;;;;;1.00;1.00;;;16.80;57.10;;;;;;5047575;28;20200;-92
2020/12/04 01:18:09;;;;;;;1.20;1.10;;;16.80;57.10;;;;;;5047812;28;20268;-92
2020/12/04 01:20:34;;;;;;;1.27;1.17;;;16.80;57.10;;;;;;5046220;28;20285;-92
2020/12/04 01:23:00;;;;;;;1.20;1.10;;;16.80;57.10;;;;;;5027647;28;20174;-92
2020/12/04 01:25:25;;;;;;;1.40;1.30;;;16.80;57.10;;;;;;5027490;28;20175;-92
2020/12/04 01:27:51;;;;;;;1.17;1.07;;;16.80;57.10;;;;;;5028673;28;20581;-92
2020/12/04 01:30:16;;;;;;;1.10;1.00;;;16.80;57.10;;;;;;5027025;28;20202;-92
2020/12/04 01:32:42;;;;;;;1.30;1.20;;;16.80;57.10;;;;;;5028653;28;20601;-92
2020/12/04 01:35:08;;;;;;;1.03;1.00;;;16.80;57.10;;;;;;5027431;28;20178;-92
2020/12/04 01:37:33;;;;;;;1.20;1.10;;;16.80;57.00;;;;;;5027288;28;20259;-92
2020/12/04 01:39:59;;;;;;;1.17;1.07;;;16.80;56.90;;;;;;5026762;28;20196;-92
2020/12/04 01:42:24;;;;;;;1.00;1.00;;;16.90;57.00;;;;;;5027619;28;20265;-92
2020/12/04 01:44:50;;;;;;;1.10;1.00;;;16.90;57.00;;;;;;5028796;28;20673;-91
2020/12/04 01:47:19;;;;;;;1.23;1.13;;;16.90;57.00;;;;;;5027749;28;20210;-92
2020/12/04 01:49:45;;;;;;;1.20;1.10;;;16.90;57.00;;;;;;5027943;28;20220;-92
2020/12/04 01:52:12;;;;;;;1.00;0.90;;;16.90;56.90;;;;;;5028603;28;21037;-92
2020/12/04 01:54:38;;;;;;;1.13;1.03;;;16.90;56.90;;;;;;5034982;28;20917;-91
2020/12/04 01:57:04;;;;;;;0.83;0.80;;;16.90;57.00;;;;;;5027142;28;20411;-92
2020/12/04 01:59:30;;;;;;;1.27;1.17;;;16.80;57.00;;;;;;5027734;28;20760;-92
2020/12/04 02:02:12;;;;;;;1.10;1.00;;;16.80;57.00;;;;;;5027316;28;20505;-92
2020/12/04 02:04:38;;;;;;;1.10;1.00;;;16.90;57.10;;;;;;5047166;28;20171;-91
2020/12/04 02:07:08;;;;;;;1.33;1.10;;;16.80;57.00;;;;;;5047073;28;20466;-92
2020/12/04 02:09:41;;;;;;;1.20;1.10;;;16.90;57.20;;;;;;5040410;28;20196;-92
2020/12/04 02:12:08;;;;;;;1.23;1.13;;;16.80;57.70;;;;;;5027039;28;20514;-91
2020/12/04 02:14:34;;;;;;;0.93;0.93;;;16.80;57.10;;;;;;5038588;28;20473;-92
2020/12/04 02:17:04;;;;;;;1.50;1.20;;;16.80;57.10;;;;;;5038667;28;20460;-92
2020/12/04 02:19:35;;;;;;;1.07;1.00;;;16.80;57.10;;;;;;5027531;28;20190;-92
2020/12/04 02:22:02;;;;;;;1.27;1.17;;;16.80;57.10;;;;;;5026833;28;20408;-92
2020/12/04 02:24:28;;;;;;;0.90;0.90;;;16.80;57.10;;;;;;5040848;28;20949;-92
2020/12/04 02:26:54;;;;;;;1.10;1.00;;;16.80;57.10;;;;;;5047752;28;20421;-92
2020/12/04 02:29:20;;;;;;;1.10;1.00;;;16.80;57.10;;;;;;5046231;28;20222;-92
2020/12/04 02:31:46;;;;;;;1.10;0.90;;;16.80;57.10;;;;;;5043616;28;20484;-92
2020/12/04 02:34:12;;;;;;;1.30;1.20;;;16.80;57.10;;;;;;5026329;28;20457;-92
2020/12/04 02:36:37;;;;;;;1.30;1.20;;;16.80;57.70;;;;;;5027513;28;20170;-92
2020/12/04 02:39:03;;;;;;;0.83;0.83;;;16.80;57.10;;;;;;5026170;28;20189;-91
2020/12/04 02:41:29;;;;;;;1.17;1.07;;;16.80;57.10;;;;;;5026024;28;20176;-92
2020/12/04 02:43:55;;;;;;;0.80;0.80;;;16.80;57.00;;;;;;5026620;28;20417;-92
2020/12/04 02:46:20;;;;;;;0.93;0.93;;;16.90;57.10;;;;;;5027983;28;20254;-92
2020/12/04 02:48:46;;;;;;;1.13;1.03;;;16.80;56.90;;;;;;5026212;28;21050;-91
2020/12/04 02:51:11;;;;;;;1.13;1.00;;;16.80;56.90;;;;;;5027296;28;20822;-92
2020/12/04 02:53:37;;;;;;;1.13;1.00;;;16.80;56.90;;;;;;5025915;28;20235;-92
2020/12/04 02:56:02;;;;;;;1.00;0.90;;;16.90;57.00;;;;;;5027629;28;20614;-92
2020/12/04 02:58:29;;;;;;;1.13;1.03;;;16.90;56.90;;;;;;5044838;28;20642;-92
2020/12/04 03:00:55;;;;;;;1.40;1.30;;;16.90;57.00;;;;;;5046793;28;20686;-92
2020/12/04 03:03:21;;;;;;;0.90;0.90;;;16.80;56.90;;;;;;5045111;28;20413;-92
2020/12/04 03:05:46;;;;;;;1.20;1.10;;;16.80;56.90;;;;;;5045829;28;20550;-92
2020/12/04 03:08:11;;;;;;;1.13;1.03;;;16.90;57.10;;;;;;5046140;28;20185;-91
2020/12/04 03:10:37;;;;;;;0.93;0.93;;;16.80;57.00;;;;;;5045494;28;20234;-92
2020/12/04 03:13:03;;;;;;;0.93;0.90;;;16.90;57.10;;;;;;5045928;28;20607;-92
2020/12/04 03:15:29;;;;;;;1.20;1.10;;;16.80;57.00;;;;;;5045968;28;20263;-92
2020/12/04 03:17:54;;;;;;;1.27;1.17;;;16.80;57.00;;;;;;5045903;28;20499;-92
2020/12/04 03:20:20;;;;;;;1.20;1.10;;;16.80;57.00;;;;;;5045734;27;20191;-92
2020/12/04 03:22:45;;;;;;;1.07;1.00;;;16.80;57.00;;;;;;5045760;28;20222;-92
2020/12/04 03:25:11;;;;;;;1.20;1.10;;;16.80;57.10;;;;;;5045889;28;20573;-92
2020/12/04 03:27:36;;;;;;;1.13;1.00;;;16.80;57.10;;;;;;5032943;28;20667;-92
2020/12/04 03:30:03;;;;;;;1.00;0.90;;;16.80;57.10;;;;;;5025285;28;20198;-92
2020/12/04 03:32:29;;;;;;;0.97;0.97;;;16.80;57.10;;;;;;5025690;28;20179;-92
2020/12/04 03:34:54;;;;;;;1.20;0.97;;;16.80;57.10;;;;;;5025638;28;20481;-92
2020/12/04 03:37:21;;;;;;;1.10;1.00;;;16.80;57.10;;;;;;5028920;28;20640;-92
2020/12/04 03:39:47;;;;;;;1.03;0.90;;;16.80;57.10;;;;;;5028667;28;20211;-92
2020/12/04 03:42:12;;;;;;;1.40;1.23;;;16.80;57.10;;;;;;5038919;28;20855;-92
2020/12/04 03:44:38;;;;;;;1.13;1.03;;;16.80;57.10;;;;;;5050425;27;20255;-92
2020/12/04 03:47:03;;;;;;;1.00;1.00;;;16.80;57.70;;;;;;5050006;27;20176;-92
2020/12/04 03:49:29;;;;;;;1.10;1.00;;;16.80;57.10;;;;;;5049698;27;20225;-92
2020/12/04 03:51:54;;;;;;;1.30;1.20;;;16.80;57.10;;;;;;5048413;27;20217;-92
2020/12/04 03:54:20;;;;;;;1.10;1.00;;;16.80;57.00;;;;;;5049720;27;20227;-92
2020/12/04 03:56:46;;;;;;;1.10;1.00;;;16.80;56.90;;;;;;5047915;27;20178;-91
2020/12/04 03:59:11;;;;;;;1.43;0.90;;;16.80;56.90;;;;;;5047907;28;20213;-92
2020/12/04 04:01:37;;;;;;;1.00;0.90;;;16.80;56.90;;;;;;5049734;28;20410;-92
2020/12/04 04:04:02;;;;;;;1.33;0.90;;;16.80;56.90;;;;;;5048750;28;20170;-92
2020/12/04 04:06:28;;;;;;;0.83;0.83;;;16.90;56.90;;;;;;5048167;28;20211;-92
2020/12/04 04:08:53;;;;;;;0.80;0.80;;;16.90;56.90;;;;;;5048570;28;20190;-92
2020/12/04 04:11:19;;;;;;;1.10;1.00;;;16.90;56.90;;;;;;5049710;28;20171;-92
2020/12/04 04:13:45;;;;;;;1.00;0.90;;;16.90;56.90;;;;;;5048732;28;20202;-92
2020/12/04 04:16:10;;;;;;;1.20;1.10;;;16.80;56.90;;;;;;5048887;28;20178;-92
2020/12/04 04:18:37;;;;;;;1.10;1.00;;;16.80;57.00;;;;;;5048565;28;20166;-92
2020/12/04 04:21:08;;;;;;;1.17;1.07;;;16.80;57.00;;;;;;5047980;28;20170;-92
2020/12/04 04:23:34;;;;;;;1.00;1.00;;;16.90;57.10;;;;;;5028431;28;20986;-92
2020/12/04 04:26:00;;;;;;;1.03;0.93;;;16.80;57.00;;;;;;5040838;28;20465;-92
2020/12/04 04:28:25;;;;;;;0.83;0.83;;;16.80;57.10;;;;;;5028247;28;20234;-92
2020/12/04 04:30:51;;;;;;;0.80;0.80;;;16.80;57.10;;;;;;5028219;28;20737;-92
2020/12/04 04:33:17;;;;;;;1.07;0.97;;;16.80;57.10;;;;;;5028300;28;20291;-92
2020/12/04 04:35:42;;;;;;;1.07;0.97;;;16.80;57.10;;;;;;5028283;28;20171;-92
2020/12/04 04:38:08;;;;;;;1.43;1.00;;;16.80;57.10;;;;;;5029577;28;20168;-91
2020/12/04 04:40:34;;;;;;;1.43;0.90;;;16.80;57.10;;;;;;5027750;28;20563;-92
2020/12/04 04:43:16;;;;;;;0.90;0.90;;;16.80;57.10;;;;;;5028204;28;20171;-92
2020/12/04 04:45:43;;;;;;;0.90;0.90;;;16.80;57.10;;;;;;5029282;28;20409;-92
2020/12/04 04:48:15;;;;;;;0.93;0.90;;;16.80;57.10;;;;;;5027887;28;20427;-92
2020/12/04 04:50:42;;;;;;;0.73;0.73;;;16.80;57.10;;;;;;5027458;28;20807;-92
2020/12/04 04:53:09;;;;;;;1.10;1.00;;;16.80;57.10;;;;;;5029255;28;20430;-92
2020/12/04 04:55:34;;;;;;;0.80;0.80;;;16.80;57.10;;;;;;5029540;28;20514;-91
2020/12/04 04:58:05;;;;;;;0.80;0.80;;;16.80;57.10;;;;;;5028173;28;20513;-92
2020/12/04 05:00:31;;;;;;;0.90;0.90;;;16.80;57.10;;;;;;5027293;28;20261;-92
2020/12/04 05:02:56;;;;;;;1.03;0.93;;;16.80;57.00;;;;;;5043098;28;20397;-92
2020/12/04 05:05:43;;;;;;;1.13;1.00;;;16.80;56.90;;;;;;5047825;28;20171;-91
2020/12/04 05:08:16;;;;;;;0.90;0.90;;;16.80;56.90;;;;;;5047828;28;20591;-91
2020/12/04 05:10:43;;;;;;;0.80;0.80;;;16.80;56.90;;;;;;5047508;28;20450;-92
2020/12/04 05:13:08;;;;;;;0.90;0.90;;;16.90;57.00;;;;;;5047571;28;20415;-92
2020/12/04 05:15:34;;;;;;;1.00;0.90;;;16.90;56.90;;;;;;5047894;28;20509;-92
2020/12/04 05:18:08;;;;;;;1.00;0.93;;;16.90;57.00;;;;;;5047666;27;21140;-92
2020/12/04 05:20:35;;;;;;;0.70;0.70;;;16.80;56.90;;;;;;5047009;28;20197;-92
2020/12/04 05:23:03;;;;;;;0.77;0.77;;;16.80;57.00;;;;;;5048811;28;20434;-92
2020/12/04 05:25:44;;;;;;;0.80;0.80;;;16.80;57.00;;;;;;5048890;28;20488;-91
2020/12/04 05:28:14;;;;;;;0.83;0.80;;;16.80;57.00;;;;;;5047416;28;20415;-92
2020/12/04 05:30:42;;;;;;;1.00;0.87;;;16.80;57.10;;;;;;5047346;28;20428;-91
2020/12/04 05:33:08;;;;;;;0.87;0.87;;;16.80;57.10;;;;;;5048024;28;20513;-92
2020/12/04 05:35:35;;;;;;;0.90;0.90;;;16.80;57.10;;;;;;5050378;28;20496;-91
2020/12/04 05:38:05;;;;;;;0.70;0.70;;;16.80;57.10;;;;;;5047853;28;20413;-91
2020/12/04 05:40:30;;;;;;;0.80;0.73;;;16.80;57.10;;;;;;5047215;28;20437;-91
2020/12/04 05:42:56;;;;;;;0.80;0.80;;;16.80;57.10;;;;;;5048064;28;20408;-91
2020/12/04 05:45:21;;;;;;;1.00;0.93;;;16.80;57.10;;;;;;5032641;28;20185;-91
2020/12/04 05:47:48;;;;;;;1.10;1.00;;;16.80;57.10;;;;;;5019647;28;20183;-91
2020/12/04 05:50:14;;;;;;;1.00;0.90;;;16.80;57.10;;;;;;5042637;28;20204;-92
2020/12/04 05:52:40;;;;;;;1.10;1.00;;;16.80;57.10;;;;;;5046555;28;20434;-91
2020/12/04 05:55:08;;;;;;;1.10;1.00;;;16.80;57.20;;;;;;5117845;27;21023;-92
2020/12/04 05:57:46;;;;;;;0.70;0.70;;;16.80;57.10;;;;;;5065796;27;20429;-91
2020/12/04 06:00:14;;;;;;;0.80;0.80;;;16.80;57.10;;;;;;5046767;28;20952;-91
2020/12/04 06:02:39;;;;;;;1.13;1.03;;;16.80;57.20;;;;;;5049262;28;20421;-92
2020/12/04 06:05:12;;;;;;;0.90;0.90;;;16.80;57.10;;;;;;5047262;28;20450;-91
2020/12/04 06:07:39;;;;;;;1.47;1.33;;;16.80;57.10;;;;;;5050022;28;20179;-94
2020/12/04 06:10:06;;;;;;;0.70;0.70;;;16.80;57.10;;;;;;5044339;28;20441;-93
2020/12/04 06:12:32;;;;;;;0.70;0.70;;;16.80;57.10;;;;;;5045783;28;20460;-92
2020/12/04 06:15:19;;;;;;;1.20;1.10;;;16.80;57.10;;;;;;5048064;27;20545;-93
2020/12/04 06:17:45;;;;;;;0.80;0.80;;;16.80;57.10;;;;;;5047176;27;20635;-90
2020/12/04 06:20:19;;;;;;;1.20;1.10;;;16.80;57.00;;;;;;5047660;28;20436;-90
2020/12/04 06:23:04;;;;;;;1.30;0.93;;;16.80;57.00;;;;;;5043612;28;20407;-89
2020/12/04 06:25:58;;;;;;;1.00;0.90;;;16.90;57.10;;;;;;5030181;28;20447;-90
2020/12/04 06:28:29;;;;;;;0.83;0.83;;;16.80;57.00;;;;;;5044132;28;20401;-90
2020/12/04 06:31:11;;;;;;;1.00;0.80;;;16.90;57.20;;;;;;5045132;28;20406;-90
2020/12/04 06:33:50;;;;;;;0.77;0.77;;;16.80;57.10;;;;;;5045907;28;20445;-90
2020/12/04 06:36:31;;;;;;;0.80;0.80;;;16.90;57.20;;;;;;5046854;28;20529;-89
2020/12/04 06:39:00;;;;;;;1.13;1.03;;;16.80;57.20;;;;;;5045525;28;20979;-90
2020/12/04 06:41:34;;;;;;;1.10;1.00;;;16.80;57.20;;;;;;5046466;28;20409;-89
2020/12/04 06:44:07;;;;;;;0.80;0.80;;;16.80;57.20;;;;;;5047239;28;20930;-90
2020/12/04 06:46:49;;;;;;;0.80;0.80;;;16.80;57.20;;;;;;5047006;28;20404;-90
2020/12/04 06:49:35;;;;;;;0.90;0.90;;;16.80;57.20;;;;;;5044995;28;20434;-89
2020/12/04 06:52:01;;;;;;;0.80;0.80;;;16.80;57.20;;;;;;5046860;28;20396;-90
2020/12/04 06:54:28;;;;;;;0.80;0.80;;;16.80;57.30;;;;;;5046753;28;20472;-90
2020/12/04 06:56:54;;;;;;;0.90;0.90;;;16.80;57.30;;;;;;5046708;28;20159;-90
2020/12/04 06:59:27;;;;;;;0.87;0.80;;;16.80;57.30;;;;;;5044665;28;20436;-90
2020/12/04 07:02:01;;;;;;;0.90;0.90;;;16.80;57.30;;;;;;5046827;28;20409;-90
2020/12/04 07:04:29;;;;;;;0.70;0.70;;;16.80;57.30;;;;;;5047338;28;20410;-90
2020/12/04 07:07:11;;;;;;;0.90;0.90;;;16.80;57.30;;;;;;5045530;28;20425;-90
2020/12/04 07:09:38;;;;;;;0.80;0.80;;;16.80;57.30;;;;;;5045359;28;20440;-90
2020/12/04 07:12:04;;;;;;;0.80;0.80;;;16.80;57.30;;;;;;5048814;28;20548;-89
2020/12/04 07:14:31;;;;;;;0.80;0.80;;;16.80;57.30;;;;;;5050046;28;20485;-90
2020/12/04 07:16:57;;;;;;;0.80;0.80;;;16.80;57.30;;;;;;5050097;28;20412;-90
2020/12/04 07:19:23;;;;;;;1.10;1.00;;;16.80;57.30;;;;;;5047797;28;20520;-90
2020/12/04 07:21:50;;;;;;;0.80;0.80;;;16.80;57.40;;;;;;5048949;28;20535;-90
2020/12/04 07:24:15;;;;;;;0.80;0.80;;;16.80;57.30;;;;;;5048658;28;20472;-90
2020/12/04 07:26:48;;;;;;;0.80;0.80;;;16.80;57.20;;;;;;5048718;27;20417;-91
2020/12/04 07:29:14;;;;;;;1.00;0.90;;;16.80;57.10;;;;;;5049286;28;20206;-90
2020/12/04 07:31:45;;;;;;;0.90;0.80;;;16.80;57.10;;;;;;5050089;28;20408;-90
2020/12/04 07:34:11;;;;;;;0.83;0.83;;;16.80;57.10;;;;;;5049856;28;20222;-90
2020/12/04 07:36:48;;;;;;;0.80;0.77;;;16.90;57.10;;;;;;5048529;28;20568;-90
2020/12/04 07:39:24;;;;;;;0.90;0.90;;;16.90;57.10;;;;;;5048918;28;20845;-89
2020/12/04 07:41:50;;;;;;;0.70;0.70;;;16.80;57.10;;;;;;5048601;28;20415;-90
2020/12/04 07:44:16;;;;;;;0.77;0.77;;;16.80;57.20;;;;;;5049815;28;20416;-90
2020/12/04 07:46:42;;;;;;;1.23;0.90;;;16.80;57.30;;;;;;5048375;28;20544;-90
2020/12/04 07:49:12;;;;;;;1.00;0.90;;;16.80;57.30;;;;;;5048898;28;20776;-89
2020/12/04 07:51:41;;;;;;;0.80;0.80;;;16.80;57.30;;;;;;5049999;28;20253;-90
2020/12/04 07:54:21;;;;;;;0.77;0.70;;;16.80;57.30;;;;;;5049704;28;20494;-90
2020/12/04 07:56:51;;;;;;;0.77;0.77;;;16.80;57.30;;;;;;5049436;28;20398;-90
2020/12/04 07:59:22;;;;;;;0.90;0.77;;;16.80;57.30;;;;;;5048862;28;20426;-90
2020/12/04 08:01:48;;;;;;;0.70;0.70;;;16.80;57.30;;;;;;5049786;28;20880;-90
2020/12/04 08:04:17;;;;;;;0.90;0.80;;;16.80;57.30;;;;;;5049619;28;20440;-91
2020/12/04 08:06:43;;;;;;;0.70;0.70;;;16.80;57.40;;;;;;5049340;28;20204;-91
2020/12/04 08:09:12;;;;;;;0.90;0.90;;;16.80;57.40;;;;;;5047474;28;20484;-91
2020/12/04 08:11:39;;;;;;;0.70;0.70;;;16.80;57.40;;;;;;5049348;28;20181;-91
2020/12/04 08:14:05;;;;;;;0.77;0.77;;;16.80;57.40;;;;;;5049522;28;20458;-90
2020/12/04 08:16:32;;;;;;;0.80;0.80;;;16.80;57.40;;;;;;5048100;28;20414;-90
2020/12/04 08:19:10;;;;;;;0.87;0.83;;;16.80;57.40;;;;;;5048968;28;20420;-90
2020/12/04 08:21:36;;;;;;;1.00;0.90;;;16.80;57.40;;;;;;5048620;28;20397;-90
2020/12/04 08:24:01;;;;;;;0.80;0.80;;;16.80;57.40;;;;;;5049235;28;20757;-91
2020/12/04 08:26:27;;;;;;;0.77;0.77;;;16.80;57.40;;;;;;5049396;28;20246;-90
2020/12/04 08:28:56;;;;;;;0.70;0.70;;;16.80;57.40;;;;;;5048684;28;20187;-90
2020/12/04 08:31:26;;;;;;;0.80;0.70;;;16.80;57.40;;;;;;5048734;28;20172;-90
2020/12/04 08:33:51;;;;;;;0.73;0.73;;;16.80;57.30;;;;;;5049450;28;20441;-90
2020/12/04 08:36:18;;;;;;;0.77;0.77;;;16.80;57.30;;;;;;5048960;28;20418;-90
2020/12/04 08:38:52;;;;;;;0.77;0.77;;;16.80;57.20;;;;;;5048613;28;20177;-90
2020/12/04 08:41:18;;;;;;;0.97;0.90;;;16.90;57.20;;;;;;5048485;28;20459;-89
2020/12/04 08:43:43;;;;;;;0.80;0.80;;;16.80;57.10;;;;;;5048890;28;20764;-90
2020/12/04 08:46:10;;;;;;;0.80;0.73;;;16.80;57.10;;;;;;5048894;28;20413;-90
2020/12/04 08:48:38;;;;;;;0.80;0.80;;;16.90;57.30;;;;;;5047643;28;20196;-90
2020/12/04 08:51:08;;;;;;;0.70;0.67;;;16.80;57.30;;;;;;5048211;28;20488;-89
2020/12/04 08:53:35;;;;;;;0.93;0.90;;;16.80;57.90;;;;;;5047390;27;20461;-90
2020/12/04 08:56:02;;;;;;;0.80;0.80;;;16.80;57.30;;;;;;5049075;28;20958;-91
2020/12/04 08:58:28;;;;;;;0.70;0.70;;;16.80;57.30;;;;;;5048521;28;20404;-90
2020/12/04 09:00:56;;;;;;;0.80;0.80;;;16.80;57.40;;;;;;5048335;28;20929;-91
2020/12/04 09:03:22;;;;;;;1.07;0.97;;;16.80;57.40;;;;;;5048668;28;20410;-90
2020/12/04 09:05:48;;;;;;;0.73;0.73;;;16.80;57.40;;;;;;5048714;28;20740;-91
2020/12/04 09:08:14;;;;;;;0.90;0.70;;;16.80;57.40;;;;;;5048628;28;20470;-90
2020/12/04 09:10:40;;;;;;;0.60;0.60;;;16.80;57.40;;;;;;5047865;28;20444;-90
2020/12/04 09:13:08;;;;;;;0.60;0.60;;;16.80;57.40;;;;;;5047398;28;20175;-91
2020/12/04 09:15:34;;;;;;;0.70;0.70;;;16.80;57.40;;;;;;5048594;28;20401;-90
2020/12/04 09:18:00;;;;;;;0.70;0.70;;;16.80;57.40;;;;;;5048764;28;20406;-91
2020/12/04 09:20:26;;;;;;;0.77;0.77;;;16.80;57.40;;;;;;5047803;28;21016;-90
2020/12/04 09:22:55;;;;;;;1.00;0.80;;;16.80;57.40;;;;;;5048212;28;20921;-90
2020/12/04 09:25:22;;;;;;;0.70;0.70;;;16.80;57.40;;;;;;5048076;28;20429;-89
2020/12/04 09:27:48;;;;;;;0.70;0.70;;;16.80;57.40;;;;;;5046746;28;20417;-90
2020/12/04 09:30:16;;;;;;;0.70;0.70;;;16.80;57.40;;;;;;5047217;28;20423;-90
2020/12/04 09:32:42;;;;;;;1.10;0.80;;;16.80;57.40;;;;;;5047379;28;20416;-89
2020/12/04 09:35:08;;;;;;;0.80;0.80;;;16.80;57.40;;;;;;5046294;28;20454;-90
2020/12/04 09:37:35;;;;;;;0.70;0.70;;;16.80;57.50;;;;;;5047956;28;20409;-91
2020/12/04 09:40:16;;;;;;;0.83;0.80;;;16.80;57.50;;;;;;5047190;28;20191;-90
2020/12/04 09:42:44;;;;;;;0.67;0.60;;;16.80;57.40;;;;;;5047919;28;20748;-90
2020/12/04 09:45:11;;;;;;;0.90;0.80;;;16.80;57.40;;;;;;5046618;28;20423;-90
2020/12/04 09:47:37;;;;;;;0.70;0.67;;;16.90;57.40;;;;;;5047895;28;20509;-90
2020/12/04 09:50:09;;;;;;;0.70;0.60;;;16.80;57.30;;;;;;5045754;28;20490;-90
2020/12/04 09:52:35;;;;;;;0.90;0.70;;;16.80;57.20;;;;;;5046625;28;20787;-91
2020/12/04 09:55:01;;;;;;;0.70;0.70;;;16.80;57.20;;;;;;5046394;28;20453;-90
2020/12/04 09:57:26;;;;;;;0.90;0.70;;;16.80;57.30;;;;;;5042584;27;20184;-91
2020/12/04 09:59:52;;;;;;;0.70;0.70;;;16.80;57.30;;;;;;5025702;28;20235;-89
2020/12/04 10:02:17;;;;;;;0.90;0.90;;;16.80;57.40;;;;;;5027803;28;20200;-90
2020/12/04 10:04:43;;;;;;;0.70;0.60;;;16.80;57.40;;;;;;5026394;28;20185;-90
2020/12/04 10:07:09;;;;;;;0.70;0.70;;;16.80;57.40;;;;;;5026330;28;20228;-90
2020/12/04 10:09:36;;;;;;;0.80;0.80;;;16.80;57.40;;;;;;5026690;28;20259;-90
2020/12/04 10:12:01;;;;;;;0.70;0.70;;;16.80;57.50;;;;;;5026383;28;20475;-90
2020/12/04 10:14:27;;;;;;;0.93;0.77;;;16.80;57.40;;;;;;5026326;28;20465;-90
2020/12/04 10:16:53;;;;;;;0.83;0.83;;;16.80;57.50;;;;;;5028460;28;20613;-91
2020/12/04 10:19:19;;;;;;;0.83;0.80;;;16.80;57.50;;;;;;5025495;28;20195;-90
2020/12/04 10:21:46;;;;;;;0.70;0.70;;;16.80;57.50;;;;;;5026882;28;20256;-90
2020/12/04 10:24:13;;;;;;;0.70;0.70;;;16.80;57.50;;;;;;5026732;28;20793;-91
2020/12/04 10:26:41;;;;;;;0.80;0.80;;;16.80;57.50;;;;;;5027738;28;20966;-90
2020/12/04 10:29:07;;;;;;;0.73;0.73;;;16.80;57.50;;;;;;5025563;28;20426;-90
2020/12/04 10:31:34;;;;;;;0.60;0.60;;;16.80;57.50;;;;;;5025952;28;20962;-90
2020/12/04 10:34:00;;;;;;;0.77;0.77;;;16.80;57.50;;;;;;5027232;28;20508;-90
2020/12/04 10:36:27;;;;;;;0.60;0.60;;;16.80;57.50;;;;;;5025861;28;20423;-90
2020/12/04 10:38:53;;;;;;;0.80;0.70;;;16.80;57.50;;;;;;5027079;28;20507;-90
2020/12/04 10:41:19;;;;;;;0.90;0.60;;;16.80;57.50;;;;;;5026521;28;20423;-90
2020/12/04 10:43:44;;;;;;;0.70;0.70;;;16.80;57.50;;;;;;5025746;28;20477;-90
2020/12/04 10:46:10;;;;;;;0.80;0.70;;;16.80;57.50;;;;;;5025084;28;20183;-90
2020/12/04 10:48:35;;;;;;;0.80;0.70;;;16.80;57.50;;;;;;5026735;28;20180;-90
2020/12/04 10:51:01;;;;;;;0.80;0.80;;;16.80;57.50;;;;;;5026404;28;20551;-91
2020/12/04 10:53:28;;;;;;;0.80;0.70;;;16.80;57.40;;;;;;5025874;28;20215;-91
2020/12/04 10:55:54;;;;;;;0.70;0.70;;;16.80;57.40;;;;;;5025996;28;20570;-91
2020/12/04 10:58:19;;;;;;;0.67;0.60;;;16.80;57.40;;;;;;5027028;28;20493;-91
2020/12/04 11:00:48;;;;;;;0.70;0.70;;;16.80;57.40;;;;;;5024957;28;20209;-90
2020/12/04 11:05:42;;;;;;;0.80;0.80;;;16.80;57.30;;;;;;5026940;28;20942;-91
2020/12/04 11:08:08;;;;;;;0.63;0.63;;;16.80;57.40;;;;;;5025686;28;20842;-90
2020/12/04 11:10:35;;;;;;;0.70;0.70;;;16.80;57.50;;;;;;5025980;28;20430;-91
2020/12/04 11:13:01;;;;;;;0.80;0.80;;;16.80;57.50;;;;;;5026942;28;20175;-90
2020/12/04 11:15:27;;;;;;;0.73;0.70;;;16.80;57.50;;;;;;5025444;28;20466;-90
2020/12/04 11:17:53;;;;;;;0.73;0.70;;;16.80;57.50;;;;;;5025720;28;20415;-90
2020/12/04 11:20:20;;;;;;;1.40;0.60;;;16.80;57.50;;;;;;5025962;28;20792;-90
2020/12/04 11:22:46;;;;;;;0.70;0.70;;;16.80;57.50;;;;;;5026829;28;20173;-90
2020/12/04 11:25:11;;;;;;;0.80;0.70;;;16.80;57.60;;;;;;5025457;28;20934;-91
2020/12/04 11:27:42;;;;;;;1.13;0.80;;;16.80;58.10;;;;;;5025437;28;20176;-90
2020/12/04 11:30:08;;;;;;;0.70;0.70;;;16.80;57.60;;;;;;5025211;28;20211;-91
2020/12/04 11:32:34;;;;;;;0.70;0.70;;;16.80;57.60;;;;;;5025662;28;20411;-92
2020/12/04 11:34:59;;;;;;;0.80;0.70;;;16.80;57.60;;;;;;5026966;28;20989;-89
2020/12/04 11:37:25;;;;;;;0.67;0.67;;;16.80;57.60;;;;;;5026413;28;20187;-89
2020/12/04 11:39:51;;;;;;;0.70;0.60;;;16.80;57.60;;;;;;5025881;28;20447;-90
2020/12/04 11:42:16;;;;;;;0.70;0.70;;;16.80;57.60;;;;;;5025606;28;20551;-91
2020/12/04 11:44:42;;;;;;;0.77;0.77;;;16.80;57.60;;;;;;5027696;28;20174;-91
2020/12/04 11:47:07;;;;;;;0.77;0.77;;;16.80;57.60;;;;;;5026270;28;20607;-91
2020/12/04 11:49:33;;;;;;;1.57;0.70;;;16.80;57.60;;;;;;5025473;28;20286;-89
2020/12/04 11:51:58;;;;;;;0.60;0.60;;;16.80;57.60;;;;;;5025813;28;20180;-90
2020/12/04 11:54:24;;;;;;;0.70;0.70;;;16.80;57.60;;;;;;5026886;28;20214;-89
2020/12/04 11:56:52;;;;;;;0.87;0.67;;;16.80;57.60;;;;;;5016335;28;20188;-90
2020/12/04 11:59:18;;;;;;;0.80;0.70;;;16.80;57.50;;;;;;5048602;27;20192;-90
2020/12/04 12:01:44;;;;;;;1.07;0.60;;;16.80;57.40;;;;;;5049363;28;20410;-89
2020/12/04 12:04:14;;;;;;;0.80;0.80;;;16.90;57.50;;;;;;5049472;28;20789;-89
2020/12/04 12:06:40;;;;;;;1.00;0.90;;;16.80;57.40;;;;;;5049221;28;20458;-90
2020/12/04 12:09:06;;;;;;;0.70;0.70;;;16.80;57.40;;;;;;5047247;28;20502;-89
2020/12/04 12:11:32;;;;;;;0.90;0.80;;;16.80;57.30;;;;;;5049033;28;20406;-90
2020/12/04 12:13:58;;;;;;;1.20;0.67;;;16.90;57.40;;;;;;5048008;28;20660;-89
2020/12/04 12:16:24;;;;;;;0.87;0.73;;;16.80;57.30;;;;;;5049090;28;20173;-89
2020/12/04 12:18:50;;;;;;;0.80;0.73;;;16.90;57.50;;;;;;5048678;28;20921;-89
2020/12/04 12:21:15;;;;;;;0.70;0.70;;;16.80;57.50;;;;;;5047379;28;20439;-90
2020/12/04 12:23:41;;;;;;;1.00;0.90;;;16.80;57.50;;;;;;5049265;28;20190;-90
2020/12/04 12:26:07;;;;;;;0.80;0.80;;;16.80;57.60;;;;;;5047897;28;20269;-89
2020/12/04 12:28:33;;;;;;;2.30;0.70;;;16.80;57.60;;;;;;5048686;28;20505;-90
2020/12/04 12:31:00;;;;;;;0.70;0.70;;;16.80;57.60;;;;;;5047439;28;20180;-90
2020/12/04 12:33:26;;;;;;;0.90;0.80;;;16.80;57.60;;;;;;5049284;28;20414;-90
2020/12/04 12:35:51;;;;;;;0.90;0.70;;;16.80;57.60;;;;;;5047887;28;20913;-90
2020/12/04 12:38:17;;;;;;;0.80;0.80;;;16.80;57.60;;;;;;5047704;28;20508;-90
2020/12/04 12:40:42;;;;;;;0.70;0.70;;;16.80;57.60;;;;;;5048151;28;20198;-90
2020/12/04 12:43:08;;;;;;;0.70;0.60;;;16.80;57.60;;;;;;5048855;28;20178;-90
2020/12/04 12:45:33;;;;;;;1.00;0.80;;;16.80;57.60;;;;;;5047490;27;20611;-89
2020/12/04 12:47:59;;;;;;;0.70;0.70;;;16.80;57.60;;;;;;5048919;27;20178;-89
2020/12/04 12:50:24;;;;;;;0.60;0.60;;;16.80;57.60;;;;;;5047952;27;20196;-89